createdAt,value
2022-11-29T00:00:24.965Z,100602.94
2022-11-29T00:02:55.902Z,100604.28
2022-11-29T00:05:26.192Z,100603.38
2022-11-29T00:07:56.267Z,100571.16
2022-11-29T00:10:26.422Z,100598.28
2022-11-29T00:12:56.478Z,100593.94
2022-11-29T00:15:29.181Z,100598.28
2022-11-29T00:17:59.239Z,100598.91
2022-11-29T00:20:29.270Z,100596.59
2022-11-29T00:22:59.260Z,100591.09
2022-11-29T00:25:29.316Z,100589.44
2022-11-29T00:27:59.935Z,100591.81
2022-11-29T00:30:32.675Z,100586.84
2022-11-29T00:33:03.859Z,100590.06
2022-11-29T00:35:34.632Z,100579.31
2022-11-29T00:38:04.768Z,100580.91
2022-11-29T00:40:34.759Z,100583.38
2022-11-29T00:43:04.872Z,100584.97
2022-11-29T00:45:37.531Z,100584.97
2022-11-29T00:48:08.213Z,100583.88
2022-11-29T00:50:38.231Z,100579.38
2022-11-29T00:53:08.405Z,100579.38
2022-11-29T00:55:38.492Z,100584.13
2022-11-29T00:58:09.063Z,100579.22
2022-11-29T01:00:41.765Z,100574.91
2022-11-29T01:03:12.115Z,100574.59
2022-11-29T01:05:43.066Z,100573.69
2022-11-29T01:08:13.777Z,100576.75
2022-11-29T01:10:43.993Z,100570.00
2022-11-29T01:13:14.723Z,100570.16
2022-11-29T01:15:47.711Z,100565.59
2022-11-29T01:18:17.736Z,100562.03
2022-11-29T01:20:47.850Z,100562.75
2022-11-29T01:23:17.915Z,100559.91
2022-11-29T01:25:59.035Z,100557.94
2022-11-29T01:28:29.931Z,100561.16
2022-11-29T01:31:08.576Z,100548.25
2022-11-29T01:33:39.001Z,100558.47
2022-11-29T01:36:11.040Z,100554.25
2022-11-29T01:38:42.540Z,100548.16
2022-11-29T01:41:16.111Z,100548.06
2022-11-29T01:44:01.656Z,100551.88
2022-11-29T01:46:36.587Z,100549.28
2022-11-29T01:49:11.933Z,100550.28
2022-11-29T01:51:45.176Z,100540.78
2022-11-29T01:54:16.815Z,100545.53
2022-11-29T01:56:49.481Z,100541.00
2022-11-29T01:59:23.431Z,100542.09
2022-11-29T02:01:56.110Z,100545.53
2022-11-29T02:04:26.361Z,100548.66
2022-11-29T02:06:56.932Z,100541.66
2022-11-29T02:09:27.093Z,100537.97
2022-11-29T02:12:10.567Z,100552.78
2022-11-29T02:14:54.907Z,100563.84
2022-11-29T02:17:36.111Z,100548.56
2022-11-29T02:20:32.508Z,100552.91
2022-11-29T02:23:15.902Z,100556.22
2022-11-29T02:26:02.941Z,100547.72
2022-11-29T02:29:02.980Z,100557.06
2022-11-29T02:31:58.357Z,100550.47
2022-11-29T02:35:00.142Z,100550.47
2022-11-29T02:37:55.287Z,100549.22
2022-11-29T02:40:56.894Z,100545.72
2022-11-29T02:43:52.636Z,100550.78
2022-11-29T02:46:45.605Z,100557.03
2022-11-29T02:49:25.704Z,100555.41
2022-11-29T02:52:03.143Z,100558.97
2022-11-29T02:54:41.542Z,100562.69
2022-11-29T02:57:24.495Z,100562.50
2022-11-29T03:00:04.759Z,100561.72
2022-11-29T03:02:42.566Z,100559.19
2022-11-29T03:05:21.740Z,100557.81
2022-11-29T03:08:01.485Z,100558.47
2022-11-29T03:10:42.012Z,100555.84
2022-11-29T03:13:20.875Z,100534.66
2022-11-29T03:16:00.545Z,100554.53
2022-11-29T03:18:45.226Z,100563.13
2022-11-29T03:21:21.959Z,100564.91
2022-11-29T03:23:58.191Z,100555.38
2022-11-29T03:26:35.248Z,100551.03
2022-11-29T03:29:10.385Z,100553.91
2022-11-29T03:31:46.623Z,100554.09
2022-11-29T03:34:24.225Z,100555.16
2022-11-29T03:37:03.243Z,100551.81
2022-11-29T03:39:45.531Z,100543.41
2022-11-29T03:42:22.531Z,100547.28
2022-11-29T03:45:00.133Z,100550.81
2022-11-29T03:47:35.016Z,100551.25
2022-11-29T03:50:10.032Z,100552.38
2022-11-29T03:52:49.299Z,100551.66
2022-11-29T03:55:36.211Z,100544.97
2022-11-29T03:58:27.796Z,100549.31
2022-11-29T04:01:24.853Z,100552.94
2022-11-29T04:04:19.020Z,100552.88
2022-11-29T04:07:04.440Z,100556.31
2022-11-29T04:10:00.240Z,100555.50
2022-11-29T04:13:03.166Z,100549.41
2022-11-29T04:16:06.365Z,100552.06
2022-11-29T04:18:59.014Z,100549.41
2022-11-29T04:21:36.508Z,100555.50
2022-11-29T04:24:27.576Z,100556.28
2022-11-29T04:27:31.881Z,100562.38
2022-11-29T04:30:21.990Z,100561.47
2022-11-29T04:33:24.601Z,100570.13
2022-11-29T04:36:29.939Z,100564.09
2022-11-29T04:39:31.668Z,100560.63
2022-11-29T04:42:31.552Z,100561.53
2022-11-29T04:45:42.792Z,100560.63
2022-11-29T04:48:45.687Z,100563.28
2022-11-29T04:51:29.051Z,100557.34
2022-11-29T04:54:09.867Z,100567.41
2022-11-29T04:56:48.344Z,100561.63
2022-11-29T04:59:26.874Z,100570.97
2022-11-29T05:02:10.940Z,100568.50
2022-11-29T05:04:51.348Z,100567.59
2022-11-29T05:07:32.336Z,100568.47
2022-11-29T05:10:14.021Z,100571.88
2022-11-29T05:12:53.484Z,100566.00
2022-11-29T05:15:50.692Z,100568.72
2022-11-29T05:18:42.974Z,100580.78
2022-11-29T05:21:22.029Z,100591.97
2022-11-29T05:24:02.531Z,100585.09
2022-11-29T05:26:36.730Z,100584.22
2022-11-29T05:29:13.728Z,100589.41
2022-11-29T05:32:06.018Z,100589.41
2022-11-29T05:34:58.053Z,100590.22
2022-11-29T05:37:38.262Z,100591.97
2022-11-29T05:40:27.837Z,100589.31
2022-11-29T05:43:14.192Z,100591.09
2022-11-29T05:45:49.943Z,100595.38
2022-11-29T05:48:27.684Z,100594.50
2022-11-29T05:51:14.321Z,100591.03
2022-11-29T05:53:50.351Z,100597.97
2022-11-29T05:56:30.564Z,100601.31
2022-11-29T05:59:05.406Z,100605.63
2022-11-29T06:01:44.609Z,100598.75
2022-11-29T06:04:21.363Z,100580.78
2022-11-29T06:06:59.759Z,100597.91
2022-11-29T06:09:33.562Z,100602.16
2022-11-29T06:12:09.924Z,100602.16
2022-11-29T06:15:00.393Z,100602.13
2022-11-29T06:17:49.986Z,100606.50
2022-11-29T06:20:45.311Z,100610.75
2022-11-29T06:23:31.595Z,100604.63
2022-11-29T06:26:13.870Z,100620.00
2022-11-29T06:29:01.892Z,100621.56
2022-11-29T06:31:37.918Z,100608.72
2022-11-29T06:34:19.547Z,100623.13
2022-11-29T06:36:53.869Z,100626.44
2022-11-29T06:39:24.606Z,100632.31
2022-11-29T06:41:54.683Z,100631.22
2022-11-29T06:44:31.383Z,100625.78
2022-11-29T06:47:08.762Z,100633.84
2022-11-29T06:49:45.658Z,100630.63
2022-11-29T06:52:30.443Z,100631.31
2022-11-29T06:55:13.543Z,100628.31
2022-11-29T06:57:54.859Z,100628.53
2022-11-29T07:00:29.922Z,100624.38
2022-11-29T07:03:24.576Z,100630.06
2022-11-29T07:05:55.636Z,100625.06
2022-11-29T07:08:26.976Z,100619.69
2022-11-29T07:10:59.712Z,100614.69
2022-11-29T07:13:30.454Z,100616.22
2022-11-29T07:16:09.705Z,100606.44
2022-11-29T07:18:46.327Z,100613.97
2022-11-29T07:21:24.255Z,100611.84
2022-11-29T07:24:05.542Z,100613.38
2022-11-29T07:26:39.863Z,100612.25
2022-11-29T07:29:23.510Z,100609.00
2022-11-29T07:32:08.489Z,100615.41
2022-11-29T07:34:47.391Z,100609.34
2022-11-29T07:37:29.211Z,100606.91
2022-11-29T07:40:05.723Z,100608.41
2022-11-29T07:42:48.612Z,100610.41
2022-11-29T07:45:26.825Z,100611.09
2022-11-29T07:47:59.470Z,100611.78
2022-11-29T07:50:30.725Z,100612.00
2022-11-29T07:53:02.076Z,100611.47
2022-11-29T07:55:32.552Z,100611.22
2022-11-29T07:58:02.653Z,100609.41
2022-11-29T08:00:32.836Z,100606.34
2022-11-29T08:03:05.596Z,100609.97
2022-11-29T08:05:35.627Z,100616.03
2022-11-29T08:08:06.775Z,100608.47
2022-11-29T08:10:36.895Z,100606.59
2022-11-29T08:13:06.911Z,100608.34
2022-11-29T08:15:37.065Z,100619.06
2022-11-29T08:18:09.847Z,100617.72
2022-11-29T08:20:41.775Z,100607.53
2022-11-29T08:23:14.456Z,100606.13
2022-11-29T08:25:46.046Z,100600.25
2022-11-29T08:28:17.138Z,100594.47
2022-11-29T08:30:47.230Z,100604.91
2022-11-29T08:33:19.885Z,100614.78
2022-11-29T08:35:49.912Z,100617.16
2022-11-29T08:38:20.005Z,100615.00
2022-11-29T08:40:50.229Z,100625.03
2022-11-29T08:43:20.260Z,100624.75
2022-11-29T08:45:54.505Z,100630.25
2022-11-29T08:48:27.591Z,100633.31
2022-11-29T08:50:59.232Z,100638.00
2022-11-29T08:53:41.918Z,100637.03
2022-11-29T08:56:53.367Z,100630.66
2022-11-29T08:59:03.115Z,100622.81
2022-11-29T09:01:34.276Z,100633.41
2022-11-29T09:04:10.569Z,100624.00
2022-11-29T09:06:44.587Z,100616.03
2022-11-29T09:09:14.813Z,100618.28
2022-11-29T09:11:49.182Z,100622.53
2022-11-29T09:14:22.493Z,100608.06
2022-11-29T09:16:52.616Z,100604.22
2022-11-29T09:19:25.455Z,100610.13
2022-11-29T09:21:55.579Z,100611.66
2022-11-29T09:24:25.905Z,100601.22
2022-11-29T09:26:55.952Z,100612.94
2022-11-29T09:29:26.198Z,100606.91
2022-11-29T09:31:56.268Z,100607.56
2022-11-29T09:34:29.045Z,100602.31
2022-11-29T09:36:59.292Z,100602.59
2022-11-29T09:39:29.391Z,100591.91
2022-11-29T09:42:30.399Z,100601.75
2022-11-29T09:45:06.993Z,100583.50
2022-11-29T09:48:11.140Z,100593.53
2022-11-29T09:50:51.015Z,100591.44
2022-11-29T09:53:49.658Z,100589.59
2022-11-29T09:56:25.943Z,100594.06
2022-11-29T09:59:01.806Z,100591.38
2022-11-29T10:01:37.574Z,100581.50
2022-11-29T10:04:12.958Z,100587.06
2022-11-29T10:06:52.264Z,100581.06
2022-11-29T10:09:33.973Z,100578.19
2022-11-29T10:12:15.195Z,100581.34
2022-11-29T10:14:51.368Z,100578.47
2022-11-29T10:17:32.848Z,100571.47
2022-11-29T10:20:09.215Z,100561.75
2022-11-29T10:22:49.464Z,100564.97
2022-11-29T10:25:27.045Z,100566.84
2022-11-29T10:27:57.489Z,100560.91
2022-11-29T10:30:27.689Z,100554.91
2022-11-29T10:33:00.661Z,100566.34
2022-11-29T10:35:30.901Z,100565.06
2022-11-29T10:38:29.801Z,100557.16
2022-11-29T10:41:00.947Z,100559.81
2022-11-29T10:43:31.087Z,100561.34
2022-11-29T10:46:03.812Z,100563.09
2022-11-29T10:48:36.978Z,100565.97
2022-11-29T10:51:14.613Z,100569.88
2022-11-29T10:53:48.471Z,100569.03
2022-11-29T10:56:27.634Z,100566.94
2022-11-29T10:59:03.264Z,100567.16
2022-11-29T11:01:35.115Z,100563.28
2022-11-29T11:04:07.487Z,100566.50
2022-11-29T11:06:48.132Z,100564.34
2022-11-29T11:09:34.616Z,100559.09
2022-11-29T11:12:08.171Z,100559.78
2022-11-29T11:14:40.958Z,100558.16
2022-11-29T11:17:26.607Z,100549.28
2022-11-29T11:20:04.671Z,100548.84
2022-11-29T11:22:39.594Z,100553.59
2022-11-29T11:25:30.279Z,100543.78
2022-11-29T11:28:01.297Z,100560.63
2022-11-29T11:30:32.310Z,100547.75
2022-11-29T11:33:19.219Z,100550.84
2022-11-29T11:36:04.272Z,100544.50
2022-11-29T11:38:35.269Z,100551.00
2022-11-29T11:41:20.364Z,100551.00
2022-11-29T11:43:56.848Z,100552.03
2022-11-29T11:46:47.249Z,100546.69
2022-11-29T11:49:27.980Z,100542.72
2022-11-29T11:51:58.329Z,100548.41
2022-11-29T11:54:28.913Z,100549.75
2022-11-29T11:57:02.731Z,100549.06
2022-11-29T11:59:32.901Z,100541.38
2022-11-29T12:02:05.819Z,100546.34
2022-11-29T12:04:40.183Z,100541.69
2022-11-29T12:07:33.791Z,100545.66
2022-11-29T12:10:21.567Z,100554.63
2022-11-29T12:13:01.167Z,100545.47
2022-11-29T12:15:34.079Z,100541.16
2022-11-29T12:18:08.836Z,100542.41
2022-11-29T12:20:44.042Z,100537.47
2022-11-29T12:23:30.051Z,100536.41
2022-11-29T12:26:05.835Z,100530.06
2022-11-29T12:28:43.062Z,100520.53
2022-11-29T12:31:27.196Z,100518.50
2022-11-29T12:34:06.467Z,100524.06
2022-11-29T12:36:49.050Z,100520.69
2022-11-29T12:39:39.712Z,100523.75
2022-11-29T12:42:20.038Z,100514.78
2022-11-29T12:45:02.099Z,100511.72
2022-11-29T12:47:50.353Z,100513.25
2022-11-29T12:50:35.068Z,100518.88
2022-11-29T12:53:26.732Z,100512.44
2022-11-29T12:56:07.162Z,100503.56
2022-11-29T12:58:47.532Z,100511.09
2022-11-29T13:01:32.537Z,100513.63
2022-11-29T13:04:13.131Z,100511.59
2022-11-29T13:06:51.324Z,100511.06
2022-11-29T13:09:47.798Z,100491.13
2022-11-29T13:12:28.591Z,100523.69
2022-11-29T13:15:05.880Z,100526.31
2022-11-29T13:17:45.433Z,100529.78
2022-11-29T13:20:31.498Z,100531.56
2022-11-29T13:23:14.835Z,100541.03
2022-11-29T13:25:50.362Z,100537.66
2022-11-29T13:28:25.849Z,100544.91
2022-11-29T13:31:01.942Z,100549.31
2022-11-29T13:33:42.672Z,100552.38
2022-11-29T13:36:18.794Z,100553.19
2022-11-29T13:38:59.751Z,100554.56
2022-11-29T13:41:33.936Z,100562.34
2022-11-29T13:44:12.945Z,100558.50
2022-11-29T13:46:49.340Z,100570.59
2022-11-29T13:49:49.148Z,100573.31
2022-11-29T13:52:34.056Z,100572.81
2022-11-29T13:55:10.086Z,100570.97
2022-11-29T14:00:53.169Z,100567.63
2022-11-29T14:03:34.316Z,100560.50
2022-11-29T14:06:13.364Z,100562.50
2022-11-29T14:11:48.859Z,100566.78
2022-11-29T14:14:27.691Z,100565.19
2022-11-29T14:17:02.207Z,100573.38
2022-11-29T14:19:34.720Z,100562.91
2022-11-29T14:22:32.912Z,100576.19
2022-11-29T14:28:33.075Z,100577.69
2022-11-29T14:31:04.323Z,100585.13
2022-11-29T14:33:55.435Z,100569.84
2022-11-29T14:36:46.186Z,100570.97
2022-11-29T14:39:35.066Z,100567.03
2022-11-29T14:42:18.772Z,100560.41
2022-11-29T14:44:52.735Z,100565.81
2022-11-29T14:47:30.078Z,100569.75
2022-11-29T14:50:10.557Z,100566.28
2022-11-29T14:52:42.834Z,100560.84
2022-11-29T14:55:35.899Z,100569.78
2022-11-29T14:58:23.851Z,100563.34
2022-11-29T15:01:11.183Z,100560.97
2022-11-29T15:03:52.620Z,100560.38
2022-11-29T15:06:29.347Z,100553.88
2022-11-29T15:09:05.730Z,100553.03
2022-11-29T15:11:53.731Z,100556.75
2022-11-29T15:14:34.916Z,100559.47
2022-11-29T15:17:19.927Z,100570.22
2022-11-29T15:20:10.851Z,100573.16
2022-11-29T15:22:52.094Z,100571.53
2022-11-29T15:25:24.717Z,100583.00
2022-11-29T15:27:56.621Z,100579.78
2022-11-29T15:30:38.512Z,100589.53
2022-11-29T15:33:10.997Z,100579.56
2022-11-29T15:35:41.205Z,100569.41
2022-11-29T15:38:20.981Z,100580.19
2022-11-29T15:40:55.208Z,100572.06
2022-11-29T15:43:26.470Z,100578.63
2022-11-29T15:46:00.298Z,100589.19
2022-11-29T15:48:31.092Z,100584.88
2022-11-29T15:51:09.767Z,100582.50
2022-11-29T15:53:47.279Z,100581.75
2022-11-29T15:56:22.931Z,100581.59
2022-11-29T15:59:03.134Z,100583.34
2022-11-29T16:01:36.629Z,100578.19
2022-11-29T16:04:07.070Z,100574.78
2022-11-29T16:06:43.838Z,100581.81
2022-11-29T16:09:19.056Z,100577.56
2022-11-29T16:11:51.248Z,100587.19
2022-11-29T16:14:25.070Z,100585.44
2022-11-29T16:17:01.551Z,100590.97
2022-11-29T16:19:37.109Z,100588.47
2022-11-29T16:22:17.733Z,100599.69
2022-11-29T16:24:56.904Z,100590.91
2022-11-29T16:27:27.489Z,100581.56
2022-11-29T16:29:57.985Z,100584.75
2022-11-29T16:32:33.332Z,100586.66
2022-11-29T16:35:09.919Z,100594.47
2022-11-29T16:37:43.394Z,100598.03
2022-11-29T16:40:25.100Z,100592.03
2022-11-29T16:43:21.221Z,100594.06
2022-11-29T16:45:51.384Z,100595.06
2022-11-29T16:48:38.230Z,100593.47
2022-11-29T16:51:20.998Z,100595.06
2022-11-29T16:53:51.921Z,100592.63
2022-11-29T16:56:23.987Z,100590.97
2022-11-29T16:59:25.537Z,100595.44
2022-11-29T17:01:48.018Z,100597.25
2022-11-29T17:04:23.508Z,100599.09
2022-11-29T17:06:55.018Z,100599.94
2022-11-29T17:09:28.130Z,100598.31
2022-11-29T17:11:59.939Z,100589.19
2022-11-29T17:14:30.386Z,100608.94
2022-11-29T17:17:01.171Z,100601.22
2022-11-29T17:19:34.692Z,100605.47
2022-11-29T17:22:04.800Z,100615.22
2022-11-29T17:24:36.992Z,100618.84
2022-11-29T17:27:07.407Z,100625.09
2022-11-29T17:29:37.574Z,100626.00
2022-11-29T17:32:10.163Z,100624.41
2022-11-29T17:34:42.993Z,100621.91
2022-11-29T17:37:13.161Z,100611.59
2022-11-29T17:39:44.943Z,100622.00
2022-11-29T17:42:15.339Z,100620.25
2022-11-29T17:44:45.496Z,100621.09
2022-11-29T17:47:15.637Z,100611.66
2022-11-29T17:49:48.863Z,100614.16
2022-11-29T17:52:19.036Z,100620.25
2022-11-29T17:54:49.252Z,100620.31
2022-11-29T17:57:19.990Z,100623.84
2022-11-29T17:59:50.213Z,100628.28
2022-11-29T18:02:20.414Z,100617.09
2022-11-29T18:04:53.192Z,100619.69
2022-11-29T18:07:23.372Z,100619.59
2022-11-29T18:09:53.957Z,100623.09
2022-11-29T18:12:24.550Z,100624.03
2022-11-29T18:14:54.608Z,100623.88
2022-11-29T18:17:27.526Z,100624.56
2022-11-29T18:20:00.350Z,100615.78
2022-11-29T18:22:31.640Z,100620.00
2022-11-29T18:25:36.415Z,100631.16
2022-11-29T18:27:54.288Z,100625.22
2022-11-29T18:30:24.372Z,100621.06
2022-11-29T18:32:54.438Z,100623.84
2022-11-29T18:35:28.200Z,100619.59
2022-11-29T18:38:14.644Z,100630.63
2022-11-29T18:40:47.392Z,100630.63
2022-11-29T18:43:19.650Z,100626.97
2022-11-29T18:45:49.830Z,100634.50
2022-11-29T18:48:19.958Z,100627.44
2022-11-29T18:50:52.892Z,100629.09
2022-11-29T18:53:22.971Z,100622.84
2022-11-29T18:56:05.984Z,100622.47
2022-11-29T18:58:37.111Z,100629.28
2022-11-29T19:01:09.023Z,100627.22
2022-11-29T19:03:41.048Z,100638.38
2022-11-29T19:06:18.684Z,100631.31
2022-11-29T19:08:49.371Z,100629.56
2022-11-29T19:11:21.095Z,100626.97
2022-11-29T19:13:56.765Z,100624.25
2022-11-29T19:16:27.830Z,100624.31
2022-11-29T19:19:02.060Z,100633.88
2022-11-29T19:21:36.158Z,100607.44
2022-11-29T19:24:14.069Z,100632.28
2022-11-29T19:26:45.840Z,100632.53
2022-11-29T19:29:16.649Z,100628.50
2022-11-29T19:31:50.515Z,100637.19
2022-11-29T19:34:20.427Z,100633.06
2022-11-29T19:36:53.180Z,100633.06
2022-11-29T19:39:23.441Z,100647.09
2022-11-29T19:41:53.609Z,100634.13
2022-11-29T19:44:29.176Z,100632.41
2022-11-29T19:47:00.148Z,100637.50
2022-11-29T19:49:30.333Z,100634.81
2022-11-29T19:52:03.007Z,100637.09
2022-11-29T19:54:33.123Z,100643.91
2022-11-29T19:57:03.179Z,100641.91
2022-11-29T19:59:35.042Z,100647.75
2022-11-29T20:02:05.479Z,100642.38
2022-11-29T20:04:40.732Z,100650.81
2022-11-29T20:07:14.029Z,100647.91
2022-11-29T20:09:44.930Z,100649.63
2022-11-29T20:12:15.196Z,100642.69
2022-11-29T20:14:45.376Z,100639.44
2022-11-29T20:17:15.451Z,100640.47
2022-11-29T20:19:45.948Z,100647.69
2022-11-29T20:22:18.973Z,100637.66
2022-11-29T20:24:49.125Z,100640.59
2022-11-29T20:27:19.305Z,100639.97
2022-11-29T20:29:49.543Z,100633.16
2022-11-29T20:32:19.959Z,100636.00
2022-11-29T20:34:51.052Z,100632.66
2022-11-29T20:37:39.143Z,100631.25
2022-11-29T20:40:14.467Z,100635.78
2022-11-29T20:43:01.018Z,100620.00
2022-11-29T20:45:32.018Z,100644.00
2022-11-29T20:48:11.393Z,100645.81
2022-11-29T20:50:42.097Z,100635.69
2022-11-29T20:53:29.328Z,100640.19
2022-11-29T20:55:59.523Z,100633.47
2022-11-29T20:58:29.712Z,100633.56
2022-11-29T21:01:00.132Z,100633.63
2022-11-29T21:03:31.719Z,100630.06
2022-11-29T21:06:04.991Z,100630.78
2022-11-29T21:08:37.815Z,100634.91
2022-11-29T21:11:11.043Z,100626.00
2022-11-29T21:13:41.905Z,100632.66
2022-11-29T21:16:17.622Z,100620.16
2022-11-29T21:18:51.067Z,100616.78
2022-11-29T21:21:27.722Z,100620.63
2022-11-29T21:24:07.871Z,100614.00
2022-11-29T21:26:44.087Z,100615.25
2022-11-29T21:29:19.393Z,100618.41
2022-11-29T21:31:52.621Z,100625.09
2022-11-29T21:34:23.076Z,100619.03
2022-11-29T21:36:58.858Z,100620.63
2022-11-29T21:39:35.411Z,100617.16
2022-11-29T21:42:05.727Z,100620.56
2022-11-29T21:44:35.811Z,100622.22
2022-11-29T21:47:05.958Z,100607.59
2022-11-29T21:49:36.050Z,100621.78
2022-11-29T21:52:06.616Z,100627.56
2022-11-29T21:54:39.346Z,100616.09
2022-11-29T21:57:09.433Z,100627.22
2022-11-29T21:59:39.627Z,100628.66
2022-11-29T22:02:11.174Z,100625.88
2022-11-29T22:04:41.400Z,100637.09
2022-11-29T22:07:11.578Z,100625.88
2022-11-29T22:09:44.278Z,100624.59
2022-11-29T22:12:33.080Z,100613.94
2022-11-29T22:15:04.177Z,100622.56
2022-11-29T22:17:34.408Z,100619.72
2022-11-29T22:20:04.452Z,100621.19
2022-11-29T22:22:34.535Z,100623.78
2022-11-29T22:25:07.900Z,100621.00
2022-11-29T22:27:37.940Z,100621.59
2022-11-29T22:30:09.497Z,100616.19
2022-11-29T22:32:39.479Z,100609.53
2022-11-29T22:35:10.008Z,100617.50
2022-11-29T22:37:40.043Z,100620.81
2022-11-29T22:40:13.740Z,100613.19
2022-11-29T22:42:44.204Z,100613.31
2022-11-29T22:45:14.583Z,100609.84
2022-11-29T22:47:44.622Z,100605.56
2022-11-29T22:50:15.648Z,100605.44
2022-11-29T22:52:45.744Z,100602.88
2022-11-29T22:55:18.448Z,100598.34
2022-11-29T22:57:48.750Z,100596.47
2022-11-29T23:00:19.626Z,100598.06
2022-11-29T23:02:49.754Z,100593.13
2022-11-29T23:05:19.969Z,100584.44
2022-11-29T23:07:50.597Z,100594.03
2022-11-29T23:10:23.471Z,100583.66
2022-11-29T23:12:53.813Z,100593.81
2022-11-29T23:15:23.842Z,100589.72
2022-11-29T23:17:53.996Z,100595.06
2022-11-29T23:20:25.616Z,100600.41
2022-11-29T23:22:56.990Z,100598.09
2022-11-29T23:25:29.790Z,100600.88
2022-11-29T23:28:00.100Z,100596.16
2022-11-29T23:30:30.168Z,100593.00
2022-11-29T23:33:00.217Z,100593.22
2022-11-29T23:35:30.357Z,100599.66
2022-11-29T23:38:00.759Z,100605.09
2022-11-29T23:40:35.540Z,100606.16
2022-11-29T23:43:05.569Z,100601.97
2022-11-29T23:45:35.683Z,100603.94
2022-11-29T23:48:05.975Z,100597.97
2022-11-29T23:50:40.948Z,100605.00
2022-11-29T23:53:11.108Z,100599.84
2022-11-29T23:55:44.277Z,100597.31
2022-11-29T23:58:14.455Z,100586.88
